sensor_id;sensor_type;location;lat;lon;timestamp;temperature;humidity
75387;DHT22;63966;47.914;22.266;2023-01-25T00:02:13;0.74;91.04
75387;DHT22;63966;47.914;22.266;2023-01-25T00:05:16;0.73;91.08
75387;DHT22;63966;47.914;22.266;2023-01-25T00:08:20;0.69;91.14
75387;DHT22;63966;47.914;22.266;2023-01-25T00:11:23;0.69;91.24
75387;DHT22;63966;47.914;22.266;2023-01-25T00:14:27;0.77;90.93
75387;DHT22;63966;47.914;22.266;2023-01-25T00:17:30;0.73;90.95
75387;DHT22;63966;47.914;22.266;2023-01-25T00:20:34;0.74;90.91
75387;DHT22;63966;47.914;22.266;2023-01-25T00:23:37;0.66;91.09
75387;DHT22;63966;47.914;22.266;2023-01-25T00:26:42;0.64;91.10
75387;DHT22;63966;47.914;22.266;2023-01-25T00:29:48;0.66;91.11
75387;DHT22;63966;47.914;22.266;2023-01-25T00:33:23;0.66;91.17
75387;DHT22;63966;47.914;22.266;2023-01-25T00:36:39;0.64;91.21
75387;DHT22;63966;47.914;22.266;2023-01-25T00:39:43;0.59;91.30
75387;DHT22;63966;47.914;22.266;2023-01-25T00:42:47;0.59;91.41
75387;DHT22;63966;47.914;22.266;2023-01-25T00:45:50;0.54;91.56
75387;DHT22;63966;47.914;22.266;2023-01-25T00:48:54;0.52;91.73
75387;DHT22;63966;47.914;22.266;2023-01-25T00:51:58;0.53;91.74
75387;DHT22;63966;47.914;22.266;2023-01-25T00:55:02;0.48;91.67
75387;DHT22;63966;47.914;22.266;2023-01-25T00:58:05;0.43;91.68
75387;DHT22;63966;47.914;22.266;2023-01-25T01:01:10;0.39;91.92
75387;DHT22;63966;47.914;22.266;2023-01-25T01:04:14;0.39;92.05
75387;DHT22;63966;47.914;22.266;2023-01-25T01:07:17;0.42;92.01
75387;DHT22;63966;47.914;22.266;2023-01-25T01:10:21;0.45;91.93
75387;DHT22;63966;47.914;22.266;2023-01-25T01:13:27;0.43;91.79
75387;DHT22;63966;47.914;22.266;2023-01-25T01:16:32;0.39;92.04
75387;DHT22;63966;47.914;22.266;2023-01-25T01:19:35;0.45;91.84
75387;DHT22;63966;47.914;22.266;2023-01-25T01:22:39;0.42;91.88
75387;DHT22;63966;47.914;22.266;2023-01-25T01:25:43;0.40;91.87
75387;DHT22;63966;47.914;22.266;2023-01-25T01:28:47;0.48;91.72
75387;DHT22;63966;47.914;22.266;2023-01-25T01:31:51;0.38;91.84
75387;DHT22;63966;47.914;22.266;2023-01-25T01:35:00;0.36;91.89
75387;DHT22;63966;47.914;22.266;2023-01-25T01:38:04;0.42;91.88
75387;DHT22;63966;47.914;22.266;2023-01-25T01:41:09;0.35;91.99
75387;DHT22;63966;47.914;22.266;2023-01-25T01:44:19;0.38;91.94
75387;DHT22;63966;47.914;22.266;2023-01-25T01:47:39;0.26;92.21
75387;DHT22;63966;47.914;22.266;2023-01-25T01:50:45;0.25;92.37
75387;DHT22;63966;47.914;22.266;2023-01-25T01:53:56;0.30;92.14
75387;DHT22;63966;47.914;22.266;2023-01-25T02:00:20;0.28;92.10
75387;DHT22;63966;47.914;22.266;2023-01-25T02:03:25;0.19;92.37
75387;DHT22;63966;47.914;22.266;2023-01-25T02:10:12;0.23;92.12
75387;DHT22;63966;47.914;22.266;2023-01-25T02:13:19;0.22;91.98
75387;DHT22;63966;47.914;22.266;2023-01-25T02:16:26;0.19;92.13
75387;DHT22;63966;47.914;22.266;2023-01-25T02:19:52;0.18;92.10
75387;DHT22;63966;47.914;22.266;2023-01-25T02:26:20;0.16;92.09
75387;DHT22;63966;47.914;22.266;2023-01-25T02:29:29;0.12;92.19
75387;DHT22;63966;47.914;22.266;2023-01-25T02:32:32;0.06;92.24
75387;DHT22;63966;47.914;22.266;2023-01-25T02:35:45;0.11;92.19
75387;DHT22;63966;47.914;22.266;2023-01-25T02:39:05;0.02;92.29
75387;DHT22;63966;47.914;22.266;2023-01-25T02:42:11;0.01;92.27
75387;DHT22;63966;47.914;22.266;2023-01-25T02:45:16;0.01;92.20
75387;DHT22;63966;47.914;22.266;2023-01-25T02:48:21;0.01;92.19
75387;DHT22;63966;47.914;22.266;2023-01-25T02:51:29;-0.05;92.23
75387;DHT22;63966;47.914;22.266;2023-01-25T02:54:32;-0.06;92.36
75387;DHT22;63966;47.914;22.266;2023-01-25T02:57:39;-0.10;92.40
75387;DHT22;63966;47.914;22.266;2023-01-25T03:00:43;-0.15;92.47
75387;DHT22;63966;47.914;22.266;2023-01-25T03:03:47;-0.20;92.55
75387;DHT22;63966;47.914;22.266;2023-01-25T03:06:52;-0.25;92.48
75387;DHT22;63966;47.914;22.266;2023-01-25T03:09:56;-0.29;92.57
75387;DHT22;63966;47.914;22.266;2023-01-25T03:13:00;-0.30;92.52
75387;DHT22;63966;47.914;22.266;2023-01-25T03:16:07;-0.34;92.60
75387;DHT22;63966;47.914;22.266;2023-01-25T03:19:13;-0.40;92.69
75387;DHT22;63966;47.914;22.266;2023-01-25T03:22:18;-0.39;92.66
75387;DHT22;63966;47.914;22.266;2023-01-25T03:25:22;-0.43;92.68
75387;DHT22;63966;47.914;22.266;2023-01-25T03:28:33;-0.46;92.84
75387;DHT22;63966;47.914;22.266;2023-01-25T03:31:37;-0.46;92.77
75387;DHT22;63966;47.914;22.266;2023-01-25T03:34:41;-0.57;92.90
75387;DHT22;63966;47.914;22.266;2023-01-25T03:37:45;-0.49;93.05
75387;DHT22;63966;47.914;22.266;2023-01-25T03:40:50;-0.53;93.00
75387;DHT22;63966;47.914;22.266;2023-01-25T03:43:53;-0.60;93.08
75387;DHT22;63966;47.914;22.266;2023-01-25T03:46:57;-0.58;93.30
75387;DHT22;63966;47.914;22.266;2023-01-25T03:50:01;-0.61;93.37
75387;DHT22;63966;47.914;22.266;2023-01-25T03:53:13;-0.61;93.44
75387;DHT22;63966;47.914;22.266;2023-01-25T03:56:31;-0.61;93.47
75387;DHT22;63966;47.914;22.266;2023-01-25T03:59:57;-0.64;93.46
75387;DHT22;63966;47.914;22.266;2023-01-25T04:03:01;-0.66;93.41
75387;DHT22;63966;47.914;22.266;2023-01-25T04:06:06;-0.61;92.85
75387;DHT22;63966;47.914;22.266;2023-01-25T04:09:10;-0.64;93.26
75387;DHT22;63966;47.914;22.266;2023-01-25T04:12:17;-0.77;93.34
75387;DHT22;63966;47.914;22.266;2023-01-25T04:15:21;-0.89;93.64
75387;DHT22;63966;47.914;22.266;2023-01-25T04:18:25;-0.98;93.94
75387;DHT22;63966;47.914;22.266;2023-01-25T04:21:29;-1.08;94.24
75387;DHT22;63966;47.914;22.266;2023-01-25T04:24:33;-0.98;94.76
75387;DHT22;63966;47.914;22.266;2023-01-25T04:27:38;-0.83;95.00
75387;DHT22;63966;47.914;22.266;2023-01-25T04:30:45;-0.68;94.89
75387;DHT22;63966;47.914;22.266;2023-01-25T04:33:49;-0.57;94.21
75387;DHT22;63966;47.914;22.266;2023-01-25T04:36:55;-0.52;93.68
75387;DHT22;63966;47.914;22.266;2023-01-25T04:40:02;-0.43;93.48
75387;DHT22;63966;47.914;22.266;2023-01-25T04:43:18;-0.29;92.84
75387;DHT22;63966;47.914;22.266;2023-01-25T04:46:24;-0.33;92.72
75387;DHT22;63966;47.914;22.266;2023-01-25T04:49:28;-0.33;92.64
75387;DHT22;63966;47.914;22.266;2023-01-25T04:52:32;-0.30;92.71
75387;DHT22;63966;47.914;22.266;2023-01-25T04:55:36;-0.25;92.71
75387;DHT22;63966;47.914;22.266;2023-01-25T04:58:39;-0.22;92.45
75387;DHT22;63966;47.914;22.266;2023-01-25T05:01:43;-0.23;92.52
75387;DHT22;63966;47.914;22.266;2023-01-25T05:04:47;-0.19;92.45
75387;DHT22;63966;47.914;22.266;2023-01-25T05:07:51;-0.19;92.18
75387;DHT22;63966;47.914;22.266;2023-01-25T05:10:56;-0.08;92.05
75387;DHT22;63966;47.914;22.266;2023-01-25T05:14:00;-0.05;91.89
75387;DHT22;63966;47.914;22.266;2023-01-25T05:17:07;-0.01;91.71
75387;DHT22;63966;47.914;22.266;2023-01-25T05:20:11;-0.02;91.62
75387;DHT22;63966;47.914;22.266;2023-01-25T05:23:17;0.09;91.50
75387;DHT22;63966;47.914;22.266;2023-01-25T05:26:21;0.08;91.08
75387;DHT22;63966;47.914;22.266;2023-01-25T05:29:44;0.08;91.12
75387;DHT22;63966;47.914;22.266;2023-01-25T05:32:49;0.09;91.20
75387;DHT22;63966;47.914;22.266;2023-01-25T05:35:53;0.09;90.86
75387;DHT22;63966;47.914;22.266;2023-01-25T05:38:59;0.22;90.89
75387;DHT22;63966;47.914;22.266;2023-01-25T05:42:14;0.32;90.46
75387;DHT22;63966;47.914;22.266;2023-01-25T05:45:18;0.26;90.14
75387;DHT22;63966;47.914;22.266;2023-01-25T05:48:22;0.28;90.32
75387;DHT22;63966;47.914;22.266;2023-01-25T05:51:29;0.30;89.94
75387;DHT22;63966;47.914;22.266;2023-01-25T05:54:33;0.36;90.02
75387;DHT22;63966;47.914;22.266;2023-01-25T05:57:40;0.35;90.00
75387;DHT22;63966;47.914;22.266;2023-01-25T06:00:45;0.38;89.75
75387;DHT22;63966;47.914;22.266;2023-01-25T06:03:59;0.35;89.94
75387;DHT22;63966;47.914;22.266;2023-01-25T06:07:02;0.32;89.90
75387;DHT22;63966;47.914;22.266;2023-01-25T06:10:08;0.30;89.75
75387;DHT22;63966;47.914;22.266;2023-01-25T06:13:14;0.26;89.85
75387;DHT22;63966;47.914;22.266;2023-01-25T06:16:18;0.16;90.53
75387;DHT22;63966;47.914;22.266;2023-01-25T06:19:41;0.19;90.20
75387;DHT22;63966;47.914;22.266;2023-01-25T06:22:54;0.23;90.55
75387;DHT22;63966;47.914;22.266;2023-01-25T06:26:03;0.21;90.52
75387;DHT22;63966;47.914;22.266;2023-01-25T06:29:07;0.25;90.33
75387;DHT22;63966;47.914;22.266;2023-01-25T06:32:11;0.33;90.42
75387;DHT22;63966;47.914;22.266;2023-01-25T06:35:15;0.38;89.97
75387;DHT22;63966;47.914;22.266;2023-01-25T06:38:18;0.46;89.88
75387;DHT22;63966;47.914;22.266;2023-01-25T06:41:22;0.50;89.68
75387;DHT22;63966;47.914;22.266;2023-01-25T06:44:26;0.56;89.45
75387;DHT22;63966;47.914;22.266;2023-01-25T06:47:30;0.64;89.41
75387;DHT22;63966;47.914;22.266;2023-01-25T06:50:34;0.70;89.33
75387;DHT22;63966;47.914;22.266;2023-01-25T06:53:40;0.81;88.90
75387;DHT22;63966;47.914;22.266;2023-01-25T06:56:43;1.04;88.03
75387;DHT22;63966;47.914;22.266;2023-01-25T06:59:47;1.22;87.64
75387;DHT22;63966;47.914;22.266;2023-01-25T07:02:51;1.28;87.50
75387;DHT22;63966;47.914;22.266;2023-01-25T07:05:59;1.08;87.84
75387;DHT22;63966;47.914;22.266;2023-01-25T07:09:08;0.97;88.78
75387;DHT22;63966;47.914;22.266;2023-01-25T07:12:12;1.04;88.73
75387;DHT22;63966;47.914;22.266;2023-01-25T07:15:15;1.18;88.37
75387;DHT22;63966;47.914;22.266;2023-01-25T07:18:19;1.07;88.98
75387;DHT22;63966;47.914;22.266;2023-01-25T07:21:24;1.11;89.74
75387;DHT22;63966;47.914;22.266;2023-01-25T07:24:27;1.19;89.66
75387;DHT22;63966;47.914;22.266;2023-01-25T07:27:35;1.07;90.53
75387;DHT22;63966;47.914;22.266;2023-01-25T07:30:40;1.11;90.64
75387;DHT22;63966;47.914;22.266;2023-01-25T07:33:48;1.22;90.51
75387;DHT22;63966;47.914;22.266;2023-01-25T07:36:52;1.17;91.09
75387;DHT22;63966;47.914;22.266;2023-01-25T07:39:55;1.21;91.07
75387;DHT22;63966;47.914;22.266;2023-01-25T07:43:00;1.22;90.82
75387;DHT22;63966;47.914;22.266;2023-01-25T07:46:08;1.38;90.86
75387;DHT22;63966;47.914;22.266;2023-01-25T07:49:15;1.53;90.17
75387;DHT22;63966;47.914;22.266;2023-01-25T07:52:19;1.49;90.88
75387;DHT22;63966;47.914;22.266;2023-01-25T07:55:23;1.43;91.44
75387;DHT22;63966;47.914;22.266;2023-01-25T07:58:26;1.38;92.40
75387;DHT22;63966;47.914;22.266;2023-01-25T08:01:31;1.42;91.88
75387;DHT22;63966;47.914;22.266;2023-01-25T08:04:36;1.42;92.30
75387;DHT22;63966;47.914;22.266;2023-01-25T08:07:41;1.42;92.60
75387;DHT22;63966;47.914;22.266;2023-01-25T08:10:45;1.35;93.11
75387;DHT22;63966;47.914;22.266;2023-01-25T08:13:48;1.40;93.09
75387;DHT22;63966;47.914;22.266;2023-01-25T08:16:52;1.35;93.24
75387;DHT22;63966;47.914;22.266;2023-01-25T08:19:56;1.22;93.94
75387;DHT22;63966;47.914;22.266;2023-01-25T08:23:00;1.43;93.75
75387;DHT22;63966;47.914;22.266;2023-01-25T08:26:05;1.46;93.70
75387;DHT22;63966;47.914;22.266;2023-01-25T08:29:10;1.46;94.01
75387;DHT22;63966;47.914;22.266;2023-01-25T08:32:14;1.52;93.41
75387;DHT22;63966;47.914;22.266;2023-01-25T08:35:18;1.49;93.90
75387;DHT22;63966;47.914;22.266;2023-01-25T08:38:22;1.47;93.75
75387;DHT22;63966;47.914;22.266;2023-01-25T08:41:28;1.52;93.84
75387;DHT22;63966;47.914;22.266;2023-01-25T08:44:31;1.53;94.07
75387;DHT22;63966;47.914;22.266;2023-01-25T08:47:39;1.66;93.61
75387;DHT22;63966;47.914;22.266;2023-01-25T08:50:46;1.68;93.57
75387;DHT22;63966;47.914;22.266;2023-01-25T08:53:50;1.78;93.16
75387;DHT22;63966;47.914;22.266;2023-01-25T08:56:55;1.87;92.64
75387;DHT22;63966;47.914;22.266;2023-01-25T08:59:59;1.78;92.88
75387;DHT22;63966;47.914;22.266;2023-01-25T09:03:03;1.74;93.02
75387;DHT22;63966;47.914;22.266;2023-01-25T09:06:07;1.73;93.33
75387;DHT22;63966;47.914;22.266;2023-01-25T09:09:13;1.64;93.80
75387;DHT22;63966;47.914;22.266;2023-01-25T09:12:17;1.80;93.22
75387;DHT22;63966;47.914;22.266;2023-01-25T09:15:20;1.77;93.50
75387;DHT22;63966;47.914;22.266;2023-01-25T09:18:26;1.74;93.34
75387;DHT22;63966;47.914;22.266;2023-01-25T09:21:29;1.87;93.06
75387;DHT22;63966;47.914;22.266;2023-01-25T09:24:35;1.71;93.78
75387;DHT22;63966;47.914;22.266;2023-01-25T09:27:41;1.77;93.64
75387;DHT22;63966;47.914;22.266;2023-01-25T09:30:52;1.76;93.15
75387;DHT22;63966;47.914;22.266;2023-01-25T09:34:36;1.76;93.94
75387;DHT22;63966;47.914;22.266;2023-01-25T09:37:39;1.68;94.22
75387;DHT22;63966;47.914;22.266;2023-01-25T09:41:42;1.80;94.30
75387;DHT22;63966;47.914;22.266;2023-01-25T09:44:26;1.97;93.06
75387;DHT22;63966;47.914;22.266;2023-01-25T09:47:39;2.00;92.55
75387;DHT22;63966;47.914;22.266;2023-01-25T09:51:38;1.95;93.43
75387;DHT22;63966;47.914;22.266;2023-01-25T09:54:17;2.03;92.76
75387;DHT22;63966;47.914;22.266;2023-01-25T09:57:37;2.11;92.50
75387;DHT22;63966;47.914;22.266;2023-01-25T10:00:45;2.01;92.75
75387;DHT22;63966;47.914;22.266;2023-01-25T10:04:01;2.00;93.04
75387;DHT22;63966;47.914;22.266;2023-01-25T10:10:59;2.10;92.65
75387;DHT22;63966;47.914;22.266;2023-01-25T10:14:15;2.07;92.70
75387;DHT22;63966;47.914;22.266;2023-01-25T10:21:25;2.17;92.30
75387;DHT22;63966;47.914;22.266;2023-01-25T10:28:04;2.13;92.32
75387;DHT22;63966;47.914;22.266;2023-01-25T10:31:46;2.10;92.98
75387;DHT22;63966;47.914;22.266;2023-01-25T10:35:11;2.35;92.07
75387;DHT22;63966;47.914;22.266;2023-01-25T10:38:42;2.28;92.16
75387;DHT22;63966;47.914;22.266;2023-01-25T10:42:29;2.31;91.88
75387;DHT22;63966;47.914;22.266;2023-01-25T10:45:23;2.50;91.20
75387;DHT22;63966;47.914;22.266;2023-01-25T10:48:32;2.57;90.48
75387;DHT22;63966;47.914;22.266;2023-01-25T10:51:37;2.64;90.27
75387;DHT22;63966;47.914;22.266;2023-01-25T10:54:40;2.64;90.30
75387;DHT22;63966;47.914;22.266;2023-01-25T10:57:46;2.67;90.11
75387;DHT22;63966;47.914;22.266;2023-01-25T11:00:51;2.60;90.01
75387;DHT22;63966;47.914;22.266;2023-01-25T11:03:56;2.75;90.20
75387;DHT22;63966;47.914;22.266;2023-01-25T11:07:01;2.72;89.74
75387;DHT22;63966;47.914;22.266;2023-01-25T11:10:36;2.76;89.65
75387;DHT22;63966;47.914;22.266;2023-01-25T11:13:40;2.76;89.57
75387;DHT22;63966;47.914;22.266;2023-01-25T11:16:46;2.69;89.35
75387;DHT22;63966;47.914;22.266;2023-01-25T11:20:19;2.77;89.02
75387;DHT22;63966;47.914;22.266;2023-01-25T11:23:24;2.80;89.06
75387;DHT22;63966;47.914;22.266;2023-01-25T11:26:32;2.66;89.36
75387;DHT22;63966;47.914;22.266;2023-01-25T11:29:38;2.56;89.56
75387;DHT22;63966;47.914;22.266;2023-01-25T11:32:42;2.42;90.06
75387;DHT22;63966;47.914;22.266;2023-01-25T11:36:09;2.34;90.10
75387;DHT22;63966;47.914;22.266;2023-01-25T11:43:26;2.50;89.95
75387;DHT22;63966;47.914;22.266;2023-01-25T11:50:14;2.63;88.89
75387;DHT22;63966;47.914;22.266;2023-01-25T11:57:22;2.67;88.42
75387;DHT22;63966;47.914;22.266;2023-01-25T12:01:09;2.79;88.64
75387;DHT22;63966;47.914;22.266;2023-01-25T12:04:40;2.79;88.27
75387;DHT22;63966;47.914;22.266;2023-01-25T12:11:12;3.12;87.90
75387;DHT22;63966;47.914;22.266;2023-01-25T12:21:36;3.28;86.98
75387;DHT22;63966;47.914;22.266;2023-01-25T12:25:02;3.24;87.13
75387;DHT22;63966;47.914;22.266;2023-01-25T12:34:51;3.29;86.19
75387;DHT22;63966;47.914;22.266;2023-01-25T12:38:03;3.45;84.19
75387;DHT22;63966;47.914;22.266;2023-01-25T12:41:32;3.36;85.18
75387;DHT22;63966;47.914;22.266;2023-01-25T12:44:40;3.31;84.32
75387;DHT22;63966;47.914;22.266;2023-01-25T12:48:11;3.36;85.16
75387;DHT22;63966;47.914;22.266;2023-01-25T12:51:10;3.32;84.72
75387;DHT22;63966;47.914;22.266;2023-01-25T12:54:41;3.45;83.85
75387;DHT22;63966;47.914;22.266;2023-01-25T13:11:51;3.42;85.39
75387;DHT22;63966;47.914;22.266;2023-01-25T13:14:55;3.43;84.18
75387;DHT22;63966;47.914;22.266;2023-01-25T13:17:59;3.55;84.09
75387;DHT22;63966;47.914;22.266;2023-01-25T13:21:08;3.77;84.08
75387;DHT22;63966;47.914;22.266;2023-01-25T13:24:28;3.79;84.26
75387;DHT22;63966;47.914;22.266;2023-01-25T13:27:32;3.68;83.54
75387;DHT22;63966;47.914;22.266;2023-01-25T13:30:51;3.56;84.81
75387;DHT22;63966;47.914;22.266;2023-01-25T13:33:55;3.59;84.52
75387;DHT22;63966;47.914;22.266;2023-01-25T13:37:14;3.65;83.96
75387;DHT22;63966;47.914;22.266;2023-01-25T13:40:37;3.73;84.11
75387;DHT22;63966;47.914;22.266;2023-01-25T13:43:44;3.63;84.71
75387;DHT22;63966;47.914;22.266;2023-01-25T13:46:48;3.43;85.54
75387;DHT22;63966;47.914;22.266;2023-01-25T13:53:23;3.34;85.86
75387;DHT22;63966;47.914;22.266;2023-01-25T13:56:33;3.27;86.29
75387;DHT22;63966;47.914;22.266;2023-01-25T13:59:37;3.32;86.34
75387;DHT22;63966;47.914;22.266;2023-01-25T14:02:44;3.36;85.84
75387;DHT22;63966;47.914;22.266;2023-01-25T14:05:56;3.38;85.62
75387;DHT22;63966;47.914;22.266;2023-01-25T14:09:12;3.38;85.71
75387;DHT22;63966;47.914;22.266;2023-01-25T14:12:39;3.41;85.89
75387;DHT22;63966;47.914;22.266;2023-01-25T14:16:02;3.36;85.81
75387;DHT22;63966;47.914;22.266;2023-01-25T14:19:29;3.39;85.54
75387;DHT22;63966;47.914;22.266;2023-01-25T14:22:33;3.39;85.93
75387;DHT22;63966;47.914;22.266;2023-01-25T14:25:40;3.39;85.44
75387;DHT22;63966;47.914;22.266;2023-01-25T14:28:47;3.39;85.42
75387;DHT22;63966;47.914;22.266;2023-01-25T14:32:04;3.32;85.73
75387;DHT22;63966;47.914;22.266;2023-01-25T14:35:33;3.31;85.79
75387;DHT22;63966;47.914;22.266;2023-01-25T14:38:52;3.32;85.54
75387;DHT22;63966;47.914;22.266;2023-01-25T14:41:56;3.34;85.81
75387;DHT22;63966;47.914;22.266;2023-01-25T14:45:04;3.28;85.83
75387;DHT22;63966;47.914;22.266;2023-01-25T14:54:56;3.27;86.64
75387;DHT22;63966;47.914;22.266;2023-01-25T14:58:02;3.29;86.84
75387;DHT22;63966;47.914;22.266;2023-01-25T15:01:12;3.20;87.22
75387;DHT22;63966;47.914;22.266;2023-01-25T15:04:17;3.22;86.80
75387;DHT22;63966;47.914;22.266;2023-01-25T15:07:50;3.24;86.95
75387;DHT22;63966;47.914;22.266;2023-01-25T15:10:58;3.22;86.96
75387;DHT22;63966;47.914;22.266;2023-01-25T15:14:21;3.18;86.97
75387;DHT22;63966;47.914;22.266;2023-01-25T15:17:43;3.24;87.11
75387;DHT22;63966;47.914;22.266;2023-01-25T15:20:48;3.18;86.97
75387;DHT22;63966;47.914;22.266;2023-01-25T15:23:53;3.18;87.15
75387;DHT22;63966;47.914;22.266;2023-01-25T15:26:57;3.21;87.08
75387;DHT22;63966;47.914;22.266;2023-01-25T15:30:01;3.17;87.05
75387;DHT22;63966;47.914;22.266;2023-01-25T15:33:07;3.03;87.74
75387;DHT22;63966;47.914;22.266;2023-01-25T15:36:12;3.03;87.95
75387;DHT22;63966;47.914;22.266;2023-01-25T15:39:18;3.00;87.93
75387;DHT22;63966;47.914;22.266;2023-01-25T15:42:22;3.05;87.76
75387;DHT22;63966;47.914;22.266;2023-01-25T15:45:26;2.99;88.04
75387;DHT22;63966;47.914;22.266;2023-01-25T15:48:35;2.94;88.02
75387;DHT22;63966;47.914;22.266;2023-01-25T15:51:40;2.96;87.95
75387;DHT22;63966;47.914;22.266;2023-01-25T15:54:44;2.93;88.04
75387;DHT22;63966;47.914;22.266;2023-01-25T15:58:03;2.94;88.20
75387;DHT22;63966;47.914;22.266;2023-01-25T16:01:06;2.90;88.49
75387;DHT22;63966;47.914;22.266;2023-01-25T16:04:11;2.86;88.58
75387;DHT22;63966;47.914;22.266;2023-01-25T16:07:26;2.90;88.31
75387;DHT22;63966;47.914;22.266;2023-01-25T16:10:33;2.94;88.16
75387;DHT22;63966;47.914;22.266;2023-01-25T16:13:42;2.93;88.13
75387;DHT22;63966;47.914;22.266;2023-01-25T16:16:49;2.90;88.35
75387;DHT22;63966;47.914;22.266;2023-01-25T16:19:53;2.90;88.36
75387;DHT22;63966;47.914;22.266;2023-01-25T16:22:57;2.89;88.47
75387;DHT22;63966;47.914;22.266;2023-01-25T16:26:00;2.90;88.35
75387;DHT22;63966;47.914;22.266;2023-01-25T16:29:04;2.83;88.56
75387;DHT22;63966;47.914;22.266;2023-01-25T16:32:08;2.83;88.50
75387;DHT22;63966;47.914;22.266;2023-01-25T16:35:13;2.82;88.66
75387;DHT22;63966;47.914;22.266;2023-01-25T16:38:17;2.76;88.66
75387;DHT22;63966;47.914;22.266;2023-01-25T16:41:21;2.80;88.57
75387;DHT22;63966;47.914;22.266;2023-01-25T16:44:25;2.80;88.54
75387;DHT22;63966;47.914;22.266;2023-01-25T16:47:28;2.67;88.93
75387;DHT22;63966;47.914;22.266;2023-01-25T16:50:34;2.66;89.10
75387;DHT22;63966;47.914;22.266;2023-01-25T16:53:37;2.64;89.05
75387;DHT22;63966;47.914;22.266;2023-01-25T16:56:41;2.70;88.80
75387;DHT22;63966;47.914;22.266;2023-01-25T16:59:45;2.62;89.05
75387;DHT22;63966;47.914;22.266;2023-01-25T17:02:49;2.63;89.05
75387;DHT22;63966;47.914;22.266;2023-01-25T17:06:02;2.70;88.82
75387;DHT22;63966;47.914;22.266;2023-01-25T17:09:07;2.73;88.38
75387;DHT22;63966;47.914;22.266;2023-01-25T17:12:25;2.57;88.52
75387;DHT22;63966;47.914;22.266;2023-01-25T17:15:29;2.60;88.53
75387;DHT22;63966;47.914;22.266;2023-01-25T17:18:33;2.60;88.63
75387;DHT22;63966;47.914;22.266;2023-01-25T17:21:42;2.64;88.50
75387;DHT22;63966;47.914;22.266;2023-01-25T17:24:46;2.60;88.66
75387;DHT22;63966;47.914;22.266;2023-01-25T17:27:50;2.60;88.88
75387;DHT22;63966;47.914;22.266;2023-01-25T17:30:54;2.57;88.80
75387;DHT22;63966;47.914;22.266;2023-01-25T17:34:01;2.60;88.49
75387;DHT22;63966;47.914;22.266;2023-01-25T17:37:05;2.56;88.43
75387;DHT22;63966;47.914;22.266;2023-01-25T17:40:09;2.59;88.60
75387;DHT22;63966;47.914;22.266;2023-01-25T17:43:14;2.52;88.54
75387;DHT22;63966;47.914;22.266;2023-01-25T17:46:23;2.56;88.51
75387;DHT22;63966;47.914;22.266;2023-01-25T17:49:28;2.53;88.48
75387;DHT22;63966;47.914;22.266;2023-01-25T17:52:33;2.56;88.32
75387;DHT22;63966;47.914;22.266;2023-01-25T17:55:37;2.59;88.09
75387;DHT22;63966;47.914;22.266;2023-01-25T17:58:41;2.57;88.43
75387;DHT22;63966;47.914;22.266;2023-01-25T18:01:45;2.50;88.36
75387;DHT22;63966;47.914;22.266;2023-01-25T18:04:49;2.63;88.15
75387;DHT22;63966;47.914;22.266;2023-01-25T18:07:53;2.67;87.96
75387;DHT22;63966;47.914;22.266;2023-01-25T18:10:59;2.57;87.79
75387;DHT22;63966;47.914;22.266;2023-01-25T18:14:08;2.53;87.87
75387;DHT22;63966;47.914;22.266;2023-01-25T18:17:12;2.49;87.94
75387;DHT22;63966;47.914;22.266;2023-01-25T18:20:16;2.48;88.18
75387;DHT22;63966;47.914;22.266;2023-01-25T18:23:21;2.50;87.85
75387;DHT22;63966;47.914;22.266;2023-01-25T18:26:32;2.41;87.81
75387;DHT22;63966;47.914;22.266;2023-01-25T18:30:17;2.39;87.98
75387;DHT22;63966;47.914;22.266;2023-01-25T18:33:28;2.41;87.89
75387;DHT22;63966;47.914;22.266;2023-01-25T18:36:32;2.39;87.89
75387;DHT22;63966;47.914;22.266;2023-01-25T18:39:36;2.36;88.09
75387;DHT22;63966;47.914;22.266;2023-01-25T18:42:40;2.32;88.25
75387;DHT22;63966;47.914;22.266;2023-01-25T18:45:44;2.36;88.18
75387;DHT22;63966;47.914;22.266;2023-01-25T18:48:48;2.38;87.94
75387;DHT22;63966;47.914;22.266;2023-01-25T18:51:53;2.31;88.06
75387;DHT22;63966;47.914;22.266;2023-01-25T18:55:13;2.49;87.28
75387;DHT22;63966;47.914;22.266;2023-01-25T18:58:17;2.36;87.97
75387;DHT22;63966;47.914;22.266;2023-01-25T19:01:22;2.41;87.44
75387;DHT22;63966;47.914;22.266;2023-01-25T19:04:26;2.43;87.09
75387;DHT22;63966;47.914;22.266;2023-01-25T19:07:30;2.29;87.67
75387;DHT22;63966;47.914;22.266;2023-01-25T19:10:34;2.29;87.75
75387;DHT22;63966;47.914;22.266;2023-01-25T19:13:39;2.36;87.04
75387;DHT22;63966;47.914;22.266;2023-01-25T19:16:43;2.31;87.28
75387;DHT22;63966;47.914;22.266;2023-01-25T19:19:47;2.38;87.48
75387;DHT22;63966;47.914;22.266;2023-01-25T19:22:52;2.29;87.55
75387;DHT22;63966;47.914;22.266;2023-01-25T19:25:57;2.17;87.72
75387;DHT22;63966;47.914;22.266;2023-01-25T19:29:00;2.18;88.17
75387;DHT22;63966;47.914;22.266;2023-01-25T19:32:04;2.14;88.24
75387;DHT22;63966;47.914;22.266;2023-01-25T19:35:08;2.20;88.19
75387;DHT22;63966;47.914;22.266;2023-01-25T19:38:13;2.21;88.26
75387;DHT22;63966;47.914;22.266;2023-01-25T19:41:23;2.17;87.72
75387;DHT22;63966;47.914;22.266;2023-01-25T19:44:28;2.07;88.32
75387;DHT22;63966;47.914;22.266;2023-01-25T19:47:32;2.13;88.14
75387;DHT22;63966;47.914;22.266;2023-01-25T19:50:36;2.15;88.33
75387;DHT22;63966;47.914;22.266;2023-01-25T19:53:42;2.13;88.36
75387;DHT22;63966;47.914;22.266;2023-01-25T19:56:50;2.14;87.98
75387;DHT22;63966;47.914;22.266;2023-01-25T19:59:54;2.17;88.25
75387;DHT22;63966;47.914;22.266;2023-01-25T20:02:58;2.14;87.86
75387;DHT22;63966;47.914;22.266;2023-01-25T20:06:19;2.25;87.12
75387;DHT22;63966;47.914;22.266;2023-01-25T20:09:23;2.29;87.32
75387;DHT22;63966;47.914;22.266;2023-01-25T20:12:30;2.26;86.65
75387;DHT22;63966;47.914;22.266;2023-01-25T20:15:35;2.26;87.18
75387;DHT22;63966;47.914;22.266;2023-01-25T20:18:39;2.25;87.17
75387;DHT22;63966;47.914;22.266;2023-01-25T20:21:44;2.28;87.64
75387;DHT22;63966;47.914;22.266;2023-01-25T20:24:49;2.26;87.89
75387;DHT22;63966;47.914;22.266;2023-01-25T20:27:52;2.32;87.59
75387;DHT22;63966;47.914;22.266;2023-01-25T20:30:58;2.22;87.82
75387;DHT22;63966;47.914;22.266;2023-01-25T20:34:14;2.15;87.84
75387;DHT22;63966;47.914;22.266;2023-01-25T20:37:18;2.10;88.14
75387;DHT22;63966;47.914;22.266;2023-01-25T20:40:23;2.20;87.33
75387;DHT22;63966;47.914;22.266;2023-01-25T20:43:27;2.24;86.84
75387;DHT22;63966;47.914;22.266;2023-01-25T20:46:32;2.29;86.94
75387;DHT22;63966;47.914;22.266;2023-01-25T20:49:37;2.36;87.15
75387;DHT22;63966;47.914;22.266;2023-01-25T20:52:40;2.39;86.71
75387;DHT22;63966;47.914;22.266;2023-01-25T20:55:44;2.22;87.84
75387;DHT22;63966;47.914;22.266;2023-01-25T20:58:56;2.15;88.51
75387;DHT22;63966;47.914;22.266;2023-01-25T21:02:02;2.17;88.57